sensor_id;sensor_type;location;lat;lon;timestamp;temperature;humidity
55634;DHT22;41504;53.162;6.788;2023-07-20T00:02:00;15.90;91.50
55634;DHT22;41504;53.162;6.788;2023-07-20T00:04:28;15.90;91.60
55634;DHT22;41504;53.162;6.788;2023-07-20T00:06:54;15.80;91.70
55634;DHT22;41504;53.162;6.788;2023-07-20T00:09:19;15.80;91.80
55634;DHT22;41504;53.162;6.788;2023-07-20T00:11:50;15.80;91.80
55634;DHT22;41504;53.162;6.788;2023-07-20T00:14:17;15.80;91.90
55634;DHT22;41504;53.162;6.788;2023-07-20T00:16:44;15.80;91.90
55634;DHT22;41504;53.162;6.788;2023-07-20T00:19:14;15.80;92.00
55634;DHT22;41504;53.162;6.788;2023-07-20T00:21:41;15.90;92.00
55634;DHT22;41504;53.162;6.788;2023-07-20T00:24:08;15.80;92.00
55634;DHT22;41504;53.162;6.788;2023-07-20T00:26:34;15.80;92.00
55634;DHT22;41504;53.162;6.788;2023-07-20T00:28:59;15.80;92.10
55634;DHT22;41504;53.162;6.788;2023-07-20T00:31:25;15.80;92.10
55634;DHT22;41504;53.162;6.788;2023-07-20T00:33:52;15.80;92.10
55634;DHT22;41504;53.162;6.788;2023-07-20T00:36:18;15.80;92.10
55634;DHT22;41504;53.162;6.788;2023-07-20T00:38:46;15.70;92.10
55634;DHT22;41504;53.162;6.788;2023-07-20T00:41:13;15.80;92.20
55634;DHT22;41504;53.162;6.788;2023-07-20T00:43:38;15.80;92.20
55634;DHT22;41504;53.162;6.788;2023-07-20T00:46:04;15.70;92.20
55634;DHT22;41504;53.162;6.788;2023-07-20T00:48:31;15.70;92.20
55634;DHT22;41504;53.162;6.788;2023-07-20T00:50:59;15.70;92.20
55634;DHT22;41504;53.162;6.788;2023-07-20T00:53:25;15.70;92.30
55634;DHT22;41504;53.162;6.788;2023-07-20T00:55:51;15.70;92.30
55634;DHT22;41504;53.162;6.788;2023-07-20T00:58:17;15.70;92.30
55634;DHT22;41504;53.162;6.788;2023-07-20T01:00:44;15.60;92.30
55634;DHT22;41504;53.162;6.788;2023-07-20T01:03:09;15.60;92.40
55634;DHT22;41504;53.162;6.788;2023-07-20T01:08:32;15.60;92.40
55634;DHT22;41504;53.162;6.788;2023-07-20T01:11:16;15.60;92.40
55634;DHT22;41504;53.162;6.788;2023-07-20T01:13:43;15.60;92.50
55634;DHT22;41504;53.162;6.788;2023-07-20T01:16:09;15.60;92.60
55634;DHT22;41504;53.162;6.788;2023-07-20T01:18:35;15.60;92.50
55634;DHT22;41504;53.162;6.788;2023-07-20T01:21:09;15.50;92.50
55634;DHT22;41504;53.162;6.788;2023-07-20T01:23:48;15.50;92.50
55634;DHT22;41504;53.162;6.788;2023-07-20T01:26:43;15.40;92.40
55634;DHT22;41504;53.162;6.788;2023-07-20T01:31:42;15.30;92.20
55634;DHT22;41504;53.162;6.788;2023-07-20T01:34:12;15.30;92.20
55634;DHT22;41504;53.162;6.788;2023-07-20T01:36:42;15.30;92.20
55634;DHT22;41504;53.162;6.788;2023-07-20T01:39:09;15.20;92.20
55634;DHT22;41504;53.162;6.788;2023-07-20T01:41:34;15.20;92.20
55634;DHT22;41504;53.162;6.788;2023-07-20T01:44:00;15.20;92.20
55634;DHT22;41504;53.162;6.788;2023-07-20T01:46:26;15.20;92.20
55634;DHT22;41504;53.162;6.788;2023-07-20T01:48:53;15.20;92.20
55634;DHT22;41504;53.162;6.788;2023-07-20T01:51:18;15.20;92.20
55634;DHT22;41504;53.162;6.788;2023-07-20T01:53:44;15.20;92.20
55634;DHT22;41504;53.162;6.788;2023-07-20T01:56:10;15.20;92.10
55634;DHT22;41504;53.162;6.788;2023-07-20T01:58:38;15.10;92.10
55634;DHT22;41504;53.162;6.788;2023-07-20T02:01:04;15.20;92.20
55634;DHT22;41504;53.162;6.788;2023-07-20T02:03:29;15.20;92.30
55634;DHT22;41504;53.162;6.788;2023-07-20T02:05:55;15.20;92.30
55634;DHT22;41504;53.162;6.788;2023-07-20T02:08:22;15.20;92.30
55634;DHT22;41504;53.162;6.788;2023-07-20T02:10:48;15.10;92.30
55634;DHT22;41504;53.162;6.788;2023-07-20T02:13:14;15.20;92.40
55634;DHT22;41504;53.162;6.788;2023-07-20T02:18:08;15.10;92.40
55634;DHT22;41504;53.162;6.788;2023-07-20T02:20:35;15.10;92.50
55634;DHT22;41504;53.162;6.788;2023-07-20T02:23:01;15.00;92.50
55634;DHT22;41504;53.162;6.788;2023-07-20T02:25:27;15.00;92.50
55634;DHT22;41504;53.162;6.788;2023-07-20T02:27:52;15.00;92.50
55634;DHT22;41504;53.162;6.788;2023-07-20T02:30:18;15.00;92.40
55634;DHT22;41504;53.162;6.788;2023-07-20T02:32:45;15.00;92.40
55634;DHT22;41504;53.162;6.788;2023-07-20T02:35:14;14.90;92.40
55634;DHT22;41504;53.162;6.788;2023-07-20T02:37:40;14.90;92.40
55634;DHT22;41504;53.162;6.788;2023-07-20T02:40:09;14.90;92.40
55634;DHT22;41504;53.162;6.788;2023-07-20T02:42:35;14.90;92.40
55634;DHT22;41504;53.162;6.788;2023-07-20T02:45:04;14.90;92.40
55634;DHT22;41504;53.162;6.788;2023-07-20T02:47:30;14.90;92.40
55634;DHT22;41504;53.162;6.788;2023-07-20T02:49:56;14.80;92.40
55634;DHT22;41504;53.162;6.788;2023-07-20T02:52:22;14.80;92.60
55634;DHT22;41504;53.162;6.788;2023-07-20T02:54:48;14.70;92.40
55634;DHT22;41504;53.162;6.788;2023-07-20T02:57:14;14.70;92.40
55634;DHT22;41504;53.162;6.788;2023-07-20T02:59:40;14.70;92.50
55634;DHT22;41504;53.162;6.788;2023-07-20T03:02:06;14.70;92.50
55634;DHT22;41504;53.162;6.788;2023-07-20T03:04:35;14.60;92.50
55634;DHT22;41504;53.162;6.788;2023-07-20T03:07:04;14.70;92.50
55634;DHT22;41504;53.162;6.788;2023-07-20T03:09:29;14.70;92.50
55634;DHT22;41504;53.162;6.788;2023-07-20T03:11:55;14.60;92.50
55634;DHT22;41504;53.162;6.788;2023-07-20T03:14:21;14.60;92.40
55634;DHT22;41504;53.162;6.788;2023-07-20T03:16:48;14.60;92.40
55634;DHT22;41504;53.162;6.788;2023-07-20T03:19:14;14.60;92.40
55634;DHT22;41504;53.162;6.788;2023-07-20T03:21:40;14.60;92.30
55634;DHT22;41504;53.162;6.788;2023-07-20T03:24:09;14.60;92.40
55634;DHT22;41504;53.162;6.788;2023-07-20T03:26:36;14.60;92.30
55634;DHT22;41504;53.162;6.788;2023-07-20T03:29:05;14.60;92.30
55634;DHT22;41504;53.162;6.788;2023-07-20T03:31:31;14.50;92.30
55634;DHT22;41504;53.162;6.788;2023-07-20T03:33:56;14.50;92.30
55634;DHT22;41504;53.162;6.788;2023-07-20T03:36:22;14.50;92.30
55634;DHT22;41504;53.162;6.788;2023-07-20T03:38:48;14.50;92.30
55634;DHT22;41504;53.162;6.788;2023-07-20T03:41:13;14.50;92.30
55634;DHT22;41504;53.162;6.788;2023-07-20T03:43:41;14.40;92.30
55634;DHT22;41504;53.162;6.788;2023-07-20T03:46:07;14.50;92.30
55634;DHT22;41504;53.162;6.788;2023-07-20T03:48:33;14.40;92.30
55634;DHT22;41504;53.162;6.788;2023-07-20T03:50:59;14.40;92.20
55634;DHT22;41504;53.162;6.788;2023-07-20T03:53:28;14.40;92.30
55634;DHT22;41504;53.162;6.788;2023-07-20T03:55:54;14.40;92.20
55634;DHT22;41504;53.162;6.788;2023-07-20T03:58:20;14.30;92.30
55634;DHT22;41504;53.162;6.788;2023-07-20T04:00:49;14.20;92.30
55634;DHT22;41504;53.162;6.788;2023-07-20T04:03:16;14.20;92.40
55634;DHT22;41504;53.162;6.788;2023-07-20T04:05:42;14.20;92.40
55634;DHT22;41504;53.162;6.788;2023-07-20T04:08:08;14.20;92.30
55634;DHT22;41504;53.162;6.788;2023-07-20T04:10:34;14.20;92.30
55634;DHT22;41504;53.162;6.788;2023-07-20T04:13:01;14.20;92.30
55634;DHT22;41504;53.162;6.788;2023-07-20T04:15:26;14.20;92.20
55634;DHT22;41504;53.162;6.788;2023-07-20T04:17:52;14.20;92.10
55634;DHT22;41504;53.162;6.788;2023-07-20T04:20:18;14.20;92.10
55634;DHT22;41504;53.162;6.788;2023-07-20T04:22:44;14.20;92.10
55634;DHT22;41504;53.162;6.788;2023-07-20T04:25:10;14.10;92.10
55634;DHT22;41504;53.162;6.788;2023-07-20T04:27:39;14.10;92.10
55634;DHT22;41504;53.162;6.788;2023-07-20T04:30:07;14.10;92.10
55634;DHT22;41504;53.162;6.788;2023-07-20T04:32:33;14.10;92.10
55634;DHT22;41504;53.162;6.788;2023-07-20T04:34:59;14.10;92.10
55634;DHT22;41504;53.162;6.788;2023-07-20T04:37:25;14.00;92.10
55634;DHT22;41504;53.162;6.788;2023-07-20T04:39:51;14.00;92.10
55634;DHT22;41504;53.162;6.788;2023-07-20T04:42:16;14.00;92.00
55634;DHT22;41504;53.162;6.788;2023-07-20T04:44:42;14.00;92.10
55634;DHT22;41504;53.162;6.788;2023-07-20T04:47:08;14.00;92.10
55634;DHT22;41504;53.162;6.788;2023-07-20T04:49:34;13.90;92.10
55634;DHT22;41504;53.162;6.788;2023-07-20T04:52:03;13.90;92.20
55634;DHT22;41504;53.162;6.788;2023-07-20T04:54:29;13.90;92.20
55634;DHT22;41504;53.162;6.788;2023-07-20T04:56:55;13.90;92.30
55634;DHT22;41504;53.162;6.788;2023-07-20T04:59:20;13.90;92.40
55634;DHT22;41504;53.162;6.788;2023-07-20T05:01:46;14.00;92.30
55634;DHT22;41504;53.162;6.788;2023-07-20T05:04:12;14.10;92.30
55634;DHT22;41504;53.162;6.788;2023-07-20T05:06:37;14.30;92.20
55634;DHT22;41504;53.162;6.788;2023-07-20T05:09:04;14.40;92.00
55634;DHT22;41504;53.162;6.788;2023-07-20T05:11:33;14.40;92.00
55634;DHT22;41504;53.162;6.788;2023-07-20T05:13:59;14.50;91.90
55634;DHT22;41504;53.162;6.788;2023-07-20T05:16:25;14.50;91.80
55634;DHT22;41504;53.162;6.788;2023-07-20T05:18:51;14.60;91.80
55634;DHT22;41504;53.162;6.788;2023-07-20T05:21:17;14.70;91.70
55634;DHT22;41504;53.162;6.788;2023-07-20T05:23:43;14.70;91.50
55634;DHT22;41504;53.162;6.788;2023-07-20T05:26:08;14.80;91.50
55634;DHT22;41504;53.162;6.788;2023-07-20T05:28:34;14.90;91.50
55634;DHT22;41504;53.162;6.788;2023-07-20T05:31:03;14.90;91.30
55634;DHT22;41504;53.162;6.788;2023-07-20T05:33:28;15.00;91.20
55634;DHT22;41504;53.162;6.788;2023-07-20T05:35:54;15.10;91.20
55634;DHT22;41504;53.162;6.788;2023-07-20T05:38:20;15.20;91.20
55634;DHT22;41504;53.162;6.788;2023-07-20T05:40:46;15.30;91.20
55634;DHT22;41504;53.162;6.788;2023-07-20T05:43:12;15.30;91.00
55634;DHT22;41504;53.162;6.788;2023-07-20T05:45:41;15.40;90.70
55634;DHT22;41504;53.162;6.788;2023-07-20T05:48:11;15.50;90.60
55634;DHT22;41504;53.162;6.788;2023-07-20T05:50:38;15.50;90.50
55634;DHT22;41504;53.162;6.788;2023-07-20T05:53:03;15.50;90.40
55634;DHT22;41504;53.162;6.788;2023-07-20T05:55:29;15.50;90.40
55634;DHT22;41504;53.162;6.788;2023-07-20T05:57:55;15.50;90.40
55634;DHT22;41504;53.162;6.788;2023-07-20T06:00:21;15.60;90.50
55634;DHT22;41504;53.162;6.788;2023-07-20T06:02:52;15.60;90.40
55634;DHT22;41504;53.162;6.788;2023-07-20T06:05:19;15.70;90.40
55634;DHT22;41504;53.162;6.788;2023-07-20T06:07:46;15.70;90.40
55634;DHT22;41504;53.162;6.788;2023-07-20T06:10:12;15.70;90.40
55634;DHT22;41504;53.162;6.788;2023-07-20T06:12:38;15.80;90.30
55634;DHT22;41504;53.162;6.788;2023-07-20T06:15:33;15.80;90.20
55634;DHT22;41504;53.162;6.788;2023-07-20T06:18:09;15.90;89.50
55634;DHT22;41504;53.162;6.788;2023-07-20T06:20:35;16.00;88.70
55634;DHT22;41504;53.162;6.788;2023-07-20T06:23:01;16.00;88.00
55634;DHT22;41504;53.162;6.788;2023-07-20T06:25:27;16.10;87.60
55634;DHT22;41504;53.162;6.788;2023-07-20T06:27:54;16.10;87.30
55634;DHT22;41504;53.162;6.788;2023-07-20T06:30:21;16.20;86.80
55634;DHT22;41504;53.162;6.788;2023-07-20T06:32:49;16.20;86.50
55634;DHT22;41504;53.162;6.788;2023-07-20T06:35:16;16.30;85.90
55634;DHT22;41504;53.162;6.788;2023-07-20T06:37:43;16.30;85.80
55634;DHT22;41504;53.162;6.788;2023-07-20T06:40:08;16.30;85.10
55634;DHT22;41504;53.162;6.788;2023-07-20T06:42:34;16.40;85.20
55634;DHT22;41504;53.162;6.788;2023-07-20T06:45:00;16.40;84.70
55634;DHT22;41504;53.162;6.788;2023-07-20T06:47:26;16.50;85.10
55634;DHT22;41504;53.162;6.788;2023-07-20T06:49:52;16.60;84.50
55634;DHT22;41504;53.162;6.788;2023-07-20T06:52:18;16.70;84.20
55634;DHT22;41504;53.162;6.788;2023-07-20T06:54:43;16.70;83.20
55634;DHT22;41504;53.162;6.788;2023-07-20T06:57:10;16.80;82.30
55634;DHT22;41504;53.162;6.788;2023-07-20T06:59:36;16.80;82.10
55634;DHT22;41504;53.162;6.788;2023-07-20T07:02:05;16.90;82.30
55634;DHT22;41504;53.162;6.788;2023-07-20T07:04:31;16.90;80.70
55634;DHT22;41504;53.162;6.788;2023-07-20T07:06:57;17.00;80.20
55634;DHT22;41504;53.162;6.788;2023-07-20T07:09:23;17.00;80.50
55634;DHT22;41504;53.162;6.788;2023-07-20T07:11:50;17.10;80.20
55634;DHT22;41504;53.162;6.788;2023-07-20T07:14:15;17.10;78.90
55634;DHT22;41504;53.162;6.788;2023-07-20T07:16:41;17.10;77.70
55634;DHT22;41504;53.162;6.788;2023-07-20T07:19:07;17.00;78.10
55634;DHT22;41504;53.162;6.788;2023-07-20T07:21:33;17.00;78.40
55634;DHT22;41504;53.162;6.788;2023-07-20T07:23:59;17.00;78.50
55634;DHT22;41504;53.162;6.788;2023-07-20T07:26:25;17.00;78.80
55634;DHT22;41504;53.162;6.788;2023-07-20T07:28:51;17.10;78.10
55634;DHT22;41504;53.162;6.788;2023-07-20T07:31:17;17.10;77.30
55634;DHT22;41504;53.162;6.788;2023-07-20T07:33:46;17.20;77.20
55634;DHT22;41504;53.162;6.788;2023-07-20T07:36:15;17.30;77.10
55634;DHT22;41504;53.162;6.788;2023-07-20T07:38:41;17.40;77.10
55634;DHT22;41504;53.162;6.788;2023-07-20T07:41:10;17.60;75.00
55634;DHT22;41504;53.162;6.788;2023-07-20T07:43:35;17.60;73.60
55634;DHT22;41504;53.162;6.788;2023-07-20T07:46:03;17.60;74.30
55634;DHT22;41504;53.162;6.788;2023-07-20T07:48:29;17.60;73.40
55634;DHT22;41504;53.162;6.788;2023-07-20T07:50:55;17.60;72.70
55634;DHT22;41504;53.162;6.788;2023-07-20T07:53:21;17.70;71.70
55634;DHT22;41504;53.162;6.788;2023-07-20T07:55:51;17.80;72.20
55634;DHT22;41504;53.162;6.788;2023-07-20T07:58:17;17.90;71.10
55634;DHT22;41504;53.162;6.788;2023-07-20T08:00:42;18.00;71.50
55634;DHT22;41504;53.162;6.788;2023-07-20T08:03:10;18.00;70.90
55634;DHT22;41504;53.162;6.788;2023-07-20T08:05:38;18.00;70.10
55634;DHT22;41504;53.162;6.788;2023-07-20T08:08:05;18.10;69.60
55634;DHT22;41504;53.162;6.788;2023-07-20T08:10:30;18.10;70.50
55634;DHT22;41504;53.162;6.788;2023-07-20T08:12:57;18.20;70.50
55634;DHT22;41504;53.162;6.788;2023-07-20T08:15:23;18.20;70.00
55634;DHT22;41504;53.162;6.788;2023-07-20T08:17:48;18.20;70.40
55634;DHT22;41504;53.162;6.788;2023-07-20T08:20:17;18.30;70.30
55634;DHT22;41504;53.162;6.788;2023-07-20T08:22:43;18.20;70.50
55634;DHT22;41504;53.162;6.788;2023-07-20T08:25:09;18.00;70.50
55634;DHT22;41504;53.162;6.788;2023-07-20T08:27:35;17.90;71.30
55634;DHT22;41504;53.162;6.788;2023-07-20T08:30:04;17.80;71.60
55634;DHT22;41504;53.162;6.788;2023-07-20T08:32:30;17.70;71.80
55634;DHT22;41504;53.162;6.788;2023-07-20T08:34:56;17.60;72.50
55634;DHT22;41504;53.162;6.788;2023-07-20T08:37:22;17.60;72.30
55634;DHT22;41504;53.162;6.788;2023-07-20T08:39:48;17.70;72.40
55634;DHT22;41504;53.162;6.788;2023-07-20T08:42:14;17.80;71.40
55634;DHT22;41504;53.162;6.788;2023-07-20T08:44:41;17.90;70.90
55634;DHT22;41504;53.162;6.788;2023-07-20T08:47:09;18.00;70.90
55634;DHT22;41504;53.162;6.788;2023-07-20T08:49:38;18.10;70.90
55634;DHT22;41504;53.162;6.788;2023-07-20T08:52:05;18.30;70.20
55634;DHT22;41504;53.162;6.788;2023-07-20T08:54:31;18.40;69.60
55634;DHT22;41504;53.162;6.788;2023-07-20T08:57:04;18.30;68.90
55634;DHT22;41504;53.162;6.788;2023-07-20T08:59:33;18.10;68.70
55634;DHT22;41504;53.162;6.788;2023-07-20T09:02:00;18.00;69.50
55634;DHT22;41504;53.162;6.788;2023-07-20T09:04:26;17.90;69.60
55634;DHT22;41504;53.162;6.788;2023-07-20T09:06:52;17.80;70.00
55634;DHT22;41504;53.162;6.788;2023-07-20T09:09:18;17.90;69.60
55634;DHT22;41504;53.162;6.788;2023-07-20T09:11:49;18.00;70.10
55634;DHT22;41504;53.162;6.788;2023-07-20T09:14:16;18.10;68.80
55634;DHT22;41504;53.162;6.788;2023-07-20T09:16:55;18.20;68.70
55634;DHT22;41504;53.162;6.788;2023-07-20T09:19:22;18.10;68.00
55634;DHT22;41504;53.162;6.788;2023-07-20T09:21:52;18.10;68.30
55634;DHT22;41504;53.162;6.788;2023-07-20T09:24:19;18.20;68.60
55634;DHT22;41504;53.162;6.788;2023-07-20T09:26:46;18.30;68.10
55634;DHT22;41504;53.162;6.788;2023-07-20T09:29:19;18.50;67.50
55634;DHT22;41504;53.162;6.788;2023-07-20T09:32:05;18.70;66.70
55634;DHT22;41504;53.162;6.788;2023-07-20T09:34:31;18.80;65.30
55634;DHT22;41504;53.162;6.788;2023-07-20T09:36:58;18.70;65.50
55634;DHT22;41504;53.162;6.788;2023-07-20T09:39:24;18.80;65.10
55634;DHT22;41504;53.162;6.788;2023-07-20T09:41:51;18.80;64.20
55634;DHT22;41504;53.162;6.788;2023-07-20T09:44:18;18.90;64.70
55634;DHT22;41504;53.162;6.788;2023-07-20T09:46:53;19.00;63.70
55634;DHT22;41504;53.162;6.788;2023-07-20T09:49:20;19.00;64.00
55634;DHT22;41504;53.162;6.788;2023-07-20T09:51:46;19.20;62.60
55634;DHT22;41504;53.162;6.788;2023-07-20T09:54:13;19.30;62.40
55634;DHT22;41504;53.162;6.788;2023-07-20T09:56:39;19.40;60.20
55634;DHT22;41504;53.162;6.788;2023-07-20T09:59:08;19.20;60.60
55634;DHT22;41504;53.162;6.788;2023-07-20T10:01:34;19.20;60.80
55634;DHT22;41504;53.162;6.788;2023-07-20T10:04:03;19.40;61.30
55634;DHT22;41504;53.162;6.788;2023-07-20T10:06:32;19.60;61.10
55634;DHT22;41504;53.162;6.788;2023-07-20T10:09:02;19.60;60.90
55634;DHT22;41504;53.162;6.788;2023-07-20T10:11:35;19.60;62.40
55634;DHT22;41504;53.162;6.788;2023-07-20T10:14:03;19.50;61.80
55634;DHT22;41504;53.162;6.788;2023-07-20T10:16:35;19.30;62.30
55634;DHT22;41504;53.162;6.788;2023-07-20T10:19:17;19.20;62.40
55634;DHT22;41504;53.162;6.788;2023-07-20T10:21:51;19.30;61.60
55634;DHT22;41504;53.162;6.788;2023-07-20T10:24:22;19.30;62.10
55634;DHT22;41504;53.162;6.788;2023-07-20T10:26:48;19.30;63.30
55634;DHT22;41504;53.162;6.788;2023-07-20T10:29:15;19.20;63.70
55634;DHT22;41504;53.162;6.788;2023-07-20T10:31:41;19.10;63.80
55634;DHT22;41504;53.162;6.788;2023-07-20T10:34:10;19.00;62.90
55634;DHT22;41504;53.162;6.788;2023-07-20T10:36:44;19.00;62.70
55634;DHT22;41504;53.162;6.788;2023-07-20T10:39:46;19.20;62.20
55634;DHT22;41504;53.162;6.788;2023-07-20T10:42:12;19.40;62.00
55634;DHT22;41504;53.162;6.788;2023-07-20T10:44:41;19.60;62.20
55634;DHT22;41504;53.162;6.788;2023-07-20T10:47:12;19.90;60.20
55634;DHT22;41504;53.162;6.788;2023-07-20T10:50:00;20.00;59.80
55634;DHT22;41504;53.162;6.788;2023-07-20T10:52:42;19.90;59.90
55634;DHT22;41504;53.162;6.788;2023-07-20T10:55:14;19.70;59.00
55634;DHT22;41504;53.162;6.788;2023-07-20T10:57:40;19.60;58.40
55634;DHT22;41504;53.162;6.788;2023-07-20T11:00:11;19.40;58.60
55634;DHT22;41504;53.162;6.788;2023-07-20T11:02:48;19.20;59.30
55634;DHT22;41504;53.162;6.788;2023-07-20T11:05:38;19.30;60.70
55634;DHT22;41504;53.162;6.788;2023-07-20T11:08:42;19.50;60.20
55634;DHT22;41504;53.162;6.788;2023-07-20T11:11:25;19.80;60.50
55634;DHT22;41504;53.162;6.788;2023-07-20T11:18:59;19.80;58.20
55634;DHT22;41504;53.162;6.788;2023-07-20T11:21:24;19.70;59.10
55634;DHT22;41504;53.162;6.788;2023-07-20T11:23:52;19.60;59.90
55634;DHT22;41504;53.162;6.788;2023-07-20T11:26:19;19.60;59.90
55634;DHT22;41504;53.162;6.788;2023-07-20T11:28:51;19.80;59.40
55634;DHT22;41504;53.162;6.788;2023-07-20T11:31:20;20.00;59.60
55634;DHT22;41504;53.162;6.788;2023-07-20T11:33:46;20.20;59.00
55634;DHT22;41504;53.162;6.788;2023-07-20T11:36:13;20.50;57.30
55634;DHT22;41504;53.162;6.788;2023-07-20T11:38:41;20.60;57.30
55634;DHT22;41504;53.162;6.788;2023-07-20T11:41:09;20.80;55.90
55634;DHT22;41504;53.162;6.788;2023-07-20T11:43:34;20.80;56.80
55634;DHT22;41504;53.162;6.788;2023-07-20T11:46:05;20.80;55.80
55634;DHT22;41504;53.162;6.788;2023-07-20T11:48:31;20.80;55.30
55634;DHT22;41504;53.162;6.788;2023-07-20T11:50:56;20.90;55.80
55634;DHT22;41504;53.162;6.788;2023-07-20T11:53:24;21.00;55.30
55634;DHT22;41504;53.162;6.788;2023-07-20T11:55:51;21.00;54.80
55634;DHT22;41504;53.162;6.788;2023-07-20T11:58:17;21.00;54.20
55634;DHT22;41504;53.162;6.788;2023-07-20T12:00:44;21.10;53.90
55634;DHT22;41504;53.162;6.788;2023-07-20T12:03:12;21.20;54.10
55634;DHT22;41504;53.162;6.788;2023-07-20T12:05:38;21.20;54.30
55634;DHT22;41504;53.162;6.788;2023-07-20T12:08:04;21.40;54.30
55634;DHT22;41504;53.162;6.788;2023-07-20T12:10:30;21.40;54.40
55634;DHT22;41504;53.162;6.788;2023-07-20T12:13:09;21.30;54.70
55634;DHT22;41504;53.162;6.788;2023-07-20T12:15:37;21.30;54.30
55634;DHT22;41504;53.162;6.788;2023-07-20T12:18:03;21.30;54.20
55634;DHT22;41504;53.162;6.788;2023-07-20T12:23:01;21.20;54.00
55634;DHT22;41504;53.162;6.788;2023-07-20T12:25:40;21.20;54.10
55634;DHT22;41504;53.162;6.788;2023-07-20T12:28:15;21.20;52.90
55634;DHT22;41504;53.162;6.788;2023-07-20T12:30:42;21.00;53.50
55634;DHT22;41504;53.162;6.788;2023-07-20T12:33:08;20.60;54.00
55634;DHT22;41504;53.162;6.788;2023-07-20T12:35:34;20.40;55.00
55634;DHT22;41504;53.162;6.788;2023-07-20T12:38:00;20.30;55.70
55634;DHT22;41504;53.162;6.788;2023-07-20T12:40:26;20.20;56.10
55634;DHT22;41504;53.162;6.788;2023-07-20T12:42:52;20.20;56.00
55634;DHT22;41504;53.162;6.788;2023-07-20T12:45:18;20.10;55.70
55634;DHT22;41504;53.162;6.788;2023-07-20T12:47:44;20.00;59.50
55634;DHT22;41504;53.162;6.788;2023-07-20T12:50:11;19.70;61.50
55634;DHT22;41504;53.162;6.788;2023-07-20T12:52:38;19.50;62.20
55634;DHT22;41504;53.162;6.788;2023-07-20T12:55:08;19.40;63.50
55634;DHT22;41504;53.162;6.788;2023-07-20T12:57:37;19.40;64.10
55634;DHT22;41504;53.162;6.788;2023-07-20T13:00:06;19.40;64.80
55634;DHT22;41504;53.162;6.788;2023-07-20T13:02:33;19.30;63.90
55634;DHT22;41504;53.162;6.788;2023-07-20T13:04:59;19.30;63.30
55634;DHT22;41504;53.162;6.788;2023-07-20T13:07:36;19.20;63.60
55634;DHT22;41504;53.162;6.788;2023-07-20T13:10:05;19.10;64.00
55634;DHT22;41504;53.162;6.788;2023-07-20T13:12:33;19.00;63.90
55634;DHT22;41504;53.162;6.788;2023-07-20T13:15:00;18.90;64.30
55634;DHT22;41504;53.162;6.788;2023-07-20T13:17:27;18.80;63.70
55634;DHT22;41504;53.162;6.788;2023-07-20T13:19:53;18.80;63.80
55634;DHT22;41504;53.162;6.788;2023-07-20T13:22:18;18.80;64.00
55634;DHT22;41504;53.162;6.788;2023-07-20T13:24:45;18.80;64.70
55634;DHT22;41504;53.162;6.788;2023-07-20T13:27:18;18.70;66.30
55634;DHT22;41504;53.162;6.788;2023-07-20T13:29:44;18.40;67.80
55634;DHT22;41504;53.162;6.788;2023-07-20T13:32:13;18.30;69.60
55634;DHT22;41504;53.162;6.788;2023-07-20T13:34:40;18.00;70.90
55634;DHT22;41504;53.162;6.788;2023-07-20T13:37:09;18.00;72.50
55634;DHT22;41504;53.162;6.788;2023-07-20T13:39:35;18.20;73.60
55634;DHT22;41504;53.162;6.788;2023-07-20T13:42:00;18.30;72.90
55634;DHT22;41504;53.162;6.788;2023-07-20T13:44:34;18.50;73.00
55634;DHT22;41504;53.162;6.788;2023-07-20T13:47:00;18.80;71.20
55634;DHT22;41504;53.162;6.788;2023-07-20T13:49:28;19.00;70.20
55634;DHT22;41504;53.162;6.788;2023-07-20T13:51:54;19.20;69.20
55634;DHT22;41504;53.162;6.788;2023-07-20T13:54:20;19.50;68.80
55634;DHT22;41504;53.162;6.788;2023-07-20T13:56:46;19.90;69.80
55634;DHT22;41504;53.162;6.788;2023-07-20T13:59:12;20.10;67.30
55634;DHT22;41504;53.162;6.788;2023-07-20T14:01:37;20.30;65.90
55634;DHT22;41504;53.162;6.788;2023-07-20T14:04:03;20.40;62.90
55634;DHT22;41504;53.162;6.788;2023-07-20T14:06:31;20.40;64.00
55634;DHT22;41504;53.162;6.788;2023-07-20T14:08:57;20.60;63.10
55634;DHT22;41504;53.162;6.788;2023-07-20T14:11:23;20.60;60.80
55634;DHT22;41504;53.162;6.788;2023-07-20T14:13:50;20.40;61.70
55634;DHT22;41504;53.162;6.788;2023-07-20T14:16:16;20.30;62.10
55634;DHT22;41504;53.162;6.788;2023-07-20T14:18:42;20.10;63.00
55634;DHT22;41504;53.162;6.788;2023-07-20T14:21:08;19.90;62.70
55634;DHT22;41504;53.162;6.788;2023-07-20T14:23:34;19.90;63.80
55634;DHT22;41504;53.162;6.788;2023-07-20T14:26:04;19.80;65.40
55634;DHT22;41504;53.162;6.788;2023-07-20T14:28:31;19.90;65.90
55634;DHT22;41504;53.162;6.788;2023-07-20T14:30:57;20.10;65.20
55634;DHT22;41504;53.162;6.788;2023-07-20T14:33:23;20.40;64.80
55634;DHT22;41504;53.162;6.788;2023-07-20T14:35:49;20.50;62.90
55634;DHT22;41504;53.162;6.788;2023-07-20T14:38:14;20.50;61.80
55634;DHT22;41504;53.162;6.788;2023-07-20T14:40:40;20.50;63.30
55634;DHT22;41504;53.162;6.788;2023-07-20T14:43:06;20.70;62.70
55634;DHT22;41504;53.162;6.788;2023-07-20T14:45:32;20.70;61.50
55634;DHT22;41504;53.162;6.788;2023-07-20T14:47:58;20.60;61.50
55634;DHT22;41504;53.162;6.788;2023-07-20T14:50:24;20.70;60.60
55634;DHT22;41504;53.162;6.788;2023-07-20T14:52:50;20.60;61.10
55634;DHT22;41504;53.162;6.788;2023-07-20T14:55:16;20.70;60.50
55634;DHT22;41504;53.162;6.788;2023-07-20T14:57:42;20.70;59.90
55634;DHT22;41504;53.162;6.788;2023-07-20T15:00:08;20.80;59.70
55634;DHT22;41504;53.162;6.788;2023-07-20T15:02:36;20.80;59.10
55634;DHT22;41504;53.162;6.788;2023-07-20T15:05:08;20.80;59.10
55634;DHT22;41504;53.162;6.788;2023-07-20T15:07:34;20.80;58.60
55634;DHT22;41504;53.162;6.788;2023-07-20T15:10:01;20.70;59.30
55634;DHT22;41504;53.162;6.788;2023-07-20T15:12:27;20.80;58.50
55634;DHT22;41504;53.162;6.788;2023-07-20T15:15:07;20.90;57.00
55634;DHT22;41504;53.162;6.788;2023-07-20T15:17:35;21.00;57.30
55634;DHT22;41504;53.162;6.788;2023-07-20T15:20:03;21.10;57.10
55634;DHT22;41504;53.162;6.788;2023-07-20T15:22:35;21.10;57.40
55634;DHT22;41504;53.162;6.788;2023-07-20T15:25:05;21.30;57.80
55634;DHT22;41504;53.162;6.788;2023-07-20T15:27:32;21.40;57.50
55634;DHT22;41504;53.162;6.788;2023-07-20T15:29:59;21.30;57.10
55634;DHT22;41504;53.162;6.788;2023-07-20T15:32:25;21.10;58.10
55634;DHT22;41504;53.162;6.788;2023-07-20T15:34:50;20.90;58.90
55634;DHT22;41504;53.162;6.788;2023-07-20T15:37:16;20.80;57.60
55634;DHT22;41504;53.162;6.788;2023-07-20T15:39:42;20.50;58.30
55634;DHT22;41504;53.162;6.788;2023-07-20T15:42:08;20.30;59.60
55634;DHT22;41504;53.162;6.788;2023-07-20T15:44:34;20.20;59.70
55634;DHT22;41504;53.162;6.788;2023-07-20T15:46:59;20.30;59.90
55634;DHT22;41504;53.162;6.788;2023-07-20T15:49:26;20.30;59.10